createdAt,value
2019-03-06T00:00:31.764Z,0.00
2019-03-06T00:01:31.779Z,0.00
2019-03-06T00:02:31.737Z,0.00
2019-03-06T00:03:31.774Z,0.00
2019-03-06T00:04:31.715Z,0.00
2019-03-06T00:05:31.705Z,0.00
2019-03-06T00:06:31.698Z,0.00
2019-03-06T00:07:31.679Z,0.00
2019-03-06T00:08:31.671Z,0.00
2019-03-06T00:09:31.695Z,0.00
2019-03-06T00:10:31.655Z,0.00
2019-03-06T00:11:31.638Z,0.00
2019-03-06T00:12:31.631Z,0.00
2019-03-06T00:13:31.614Z,0.00
2019-03-06T00:14:31.625Z,0.00
2019-03-06T00:15:31.641Z,0.00
2019-03-06T00:16:31.583Z,0.00
2019-03-06T00:17:31.580Z,0.00
2019-03-06T00:18:31.578Z,0.00
2019-03-06T00:19:31.553Z,0.00
2019-03-06T00:20:31.541Z,0.00
2019-03-06T00:21:31.625Z,0.00
2019-03-06T00:22:31.521Z,0.00
2019-03-06T00:23:31.545Z,0.00
2019-03-06T00:24:31.523Z,0.00
2019-03-06T00:25:31.482Z,0.00
2019-03-06T00:26:31.500Z,0.00
2019-03-06T00:27:31.459Z,0.00
2019-03-06T00:28:31.484Z,0.00
2019-03-06T00:29:31.441Z,0.00
2019-03-06T00:30:31.460Z,0.00
2019-03-06T00:31:31.417Z,0.00
2019-03-06T00:32:31.407Z,0.00
2019-03-06T00:33:31.396Z,0.00
2019-03-06T00:34:31.424Z,0.00
2019-03-06T00:35:31.393Z,0.00
2019-03-06T00:36:31.372Z,0.00
2019-03-06T00:37:31.358Z,0.00
2019-03-06T00:38:31.345Z,0.00
2019-03-06T00:39:31.362Z,0.00
2019-03-06T00:40:31.322Z,0.00
2019-03-06T00:41:31.338Z,0.00
2019-03-06T00:42:31.294Z,0.00
2019-03-06T00:43:31.287Z,0.00
2019-03-06T00:44:31.270Z,0.00
2019-03-06T00:45:31.266Z,0.00
2019-03-06T00:46:31.281Z,0.00
2019-03-06T00:47:31.241Z,0.00
2019-03-06T00:48:31.227Z,0.00
2019-03-06T00:49:31.218Z,0.00
2019-03-06T00:50:31.531Z,0.00
2019-03-06T00:51:31.250Z,0.00
2019-03-06T00:52:31.183Z,0.00
2019-03-06T00:53:31.172Z,0.00
2019-03-06T00:54:31.161Z,0.00
2019-03-06T00:55:31.150Z,0.00
2019-03-06T00:56:31.140Z,0.00
2019-03-06T00:57:31.168Z,0.00
2019-03-06T00:58:31.118Z,0.00
2019-03-06T00:59:31.260Z,0.00
2019-03-06T01:00:31.115Z,0.00
2019-03-06T01:01:31.084Z,0.00
2019-03-06T01:02:31.074Z,0.00
2019-03-06T01:03:31.099Z,0.00
2019-03-06T01:04:31.050Z,0.00
2019-03-06T01:05:31.047Z,0.00
2019-03-06T01:06:31.030Z,0.00
2019-03-06T01:07:31.016Z,0.00
2019-03-06T01:08:31.008Z,0.00
2019-03-06T01:09:31.036Z,0.00
2019-03-06T01:10:30.986Z,0.00
2019-03-06T01:11:30.977Z,0.00
2019-03-06T01:12:30.968Z,0.00
2019-03-06T01:13:30.974Z,0.00
2019-03-06T01:14:30.941Z,0.00
2019-03-06T01:15:30.966Z,0.00
2019-03-06T01:16:30.918Z,0.00
2019-03-06T01:17:30.906Z,0.00
2019-03-06T01:18:30.910Z,0.00
2019-03-06T01:19:30.894Z,0.00
2019-03-06T01:20:30.878Z,0.00
2019-03-06T01:21:31.028Z,0.00
2019-03-06T01:22:30.864Z,0.00
2019-03-06T01:23:30.862Z,0.00
2019-03-06T01:24:30.827Z,0.00
2019-03-06T01:25:30.821Z,0.00
2019-03-06T01:26:30.807Z,0.00
2019-03-06T01:27:30.835Z,0.00
2019-03-06T01:28:30.787Z,0.00
2019-03-06T01:29:30.783Z,0.00
2019-03-06T01:30:30.763Z,0.00
2019-03-06T01:31:30.758Z,0.00
2019-03-06T01:32:30.781Z,0.00
2019-03-06T01:33:30.731Z,0.00
2019-03-06T01:34:30.720Z,0.00
2019-03-06T01:35:30.725Z,0.00
2019-03-06T01:36:30.741Z,0.00
2019-03-06T01:37:30.740Z,0.00
2019-03-06T01:38:30.673Z,0.00
2019-03-06T01:39:30.664Z,0.00
2019-03-06T01:40:30.658Z,0.00
2019-03-06T01:41:30.655Z,0.00
2019-03-06T01:42:30.670Z,0.00
2019-03-06T01:43:30.626Z,0.00
2019-03-06T01:44:30.613Z,0.00
2019-03-06T01:45:30.597Z,0.00
2019-03-06T01:46:30.625Z,0.00
2019-03-06T01:47:30.609Z,0.00
2019-03-06T01:48:30.564Z,0.00
2019-03-06T01:49:30.611Z,0.00
2019-03-06T01:50:30.541Z,0.00
2019-03-06T01:51:30.532Z,0.00
2019-03-06T01:52:30.523Z,0.00
2019-03-06T01:53:30.540Z,0.00
2019-03-06T01:54:30.540Z,0.00
2019-03-06T01:55:30.487Z,0.00
2019-03-06T01:56:30.476Z,0.00
2019-03-06T01:57:30.466Z,0.00
2019-03-06T01:58:30.509Z,0.00
2019-03-06T01:59:30.463Z,0.00
2019-03-06T02:00:30.470Z,0.00
2019-03-06T02:01:30.422Z,0.00
2019-03-06T02:02:30.407Z,0.00
2019-03-06T02:03:30.402Z,0.00
2019-03-06T02:04:30.386Z,0.00
2019-03-06T02:05:30.379Z,0.00
2019-03-06T02:06:30.398Z,0.00
2019-03-06T02:07:30.357Z,0.00
2019-03-06T02:08:30.346Z,0.00
2019-03-06T02:09:30.333Z,0.00
2019-03-06T02:10:30.319Z,0.00
2019-03-06T02:11:30.322Z,0.00
2019-03-06T02:12:30.337Z,0.00
2019-03-06T02:13:30.287Z,0.00
2019-03-06T02:14:30.279Z,0.00
2019-03-06T02:15:30.263Z,0.00
2019-03-06T02:16:30.259Z,0.00
2019-03-06T02:17:30.241Z,0.00
2019-03-06T02:18:30.264Z,0.00
2019-03-06T02:19:30.222Z,0.00
2019-03-06T02:20:30.214Z,0.00
2019-03-06T02:21:30.203Z,0.00
2019-03-06T02:22:30.187Z,0.00
2019-03-06T02:23:30.182Z,0.00
2019-03-06T02:24:30.200Z,0.00
2019-03-06T02:25:30.150Z,0.00
2019-03-06T02:26:30.142Z,0.00
2019-03-06T02:27:45.124Z,0.00
2019-03-06T02:28:30.119Z,0.00
2019-03-06T02:29:30.156Z,0.00
2019-03-06T02:30:30.101Z,0.00
2019-03-06T02:31:30.123Z,0.00
2019-03-06T02:32:30.073Z,0.00
2019-03-06T02:33:30.061Z,0.00
2019-03-06T02:34:30.053Z,0.00
2019-03-06T02:35:30.043Z,0.00
2019-03-06T02:36:30.032Z,0.00
2019-03-06T02:37:30.063Z,0.00
2019-03-06T02:38:30.006Z,0.00
2019-03-06T02:39:30.042Z,0.00
2019-03-06T02:40:30.004Z,0.00
2019-03-06T02:41:29.988Z,0.00
2019-03-06T02:42:29.970Z,0.00
2019-03-06T02:43:29.969Z,0.00
2019-03-06T02:44:30.172Z,0.00
2019-03-06T02:45:29.932Z,0.00
2019-03-06T02:46:29.919Z,0.00
2019-03-06T02:47:29.928Z,0.00
2019-03-06T02:48:29.912Z,0.00
2019-03-06T02:49:29.930Z,0.00
2019-03-06T02:50:29.877Z,0.00
2019-03-06T02:51:29.868Z,0.00
2019-03-06T02:52:29.855Z,0.00
2019-03-06T02:53:29.849Z,0.00
2019-03-06T02:54:29.835Z,0.00
2019-03-06T02:55:29.865Z,0.00
2019-03-06T02:56:29.807Z,0.00
2019-03-06T02:57:29.804Z,0.00
2019-03-06T02:58:29.820Z,0.00
2019-03-06T02:59:29.779Z,0.00
2019-03-06T03:00:29.763Z,0.00
2019-03-06T03:01:29.791Z,0.00
2019-03-06T03:02:29.747Z,0.00
2019-03-06T03:03:29.736Z,0.00
2019-03-06T03:04:29.722Z,0.00
2019-03-06T03:05:29.708Z,0.00
2019-03-06T03:06:29.739Z,0.00
2019-03-06T03:07:29.813Z,0.00
2019-03-06T03:08:29.676Z,0.00
2019-03-06T03:09:29.679Z,0.00
2019-03-06T03:10:29.656Z,0.00
2019-03-06T03:11:29.659Z,0.00
2019-03-06T03:12:29.746Z,0.00
2019-03-06T03:13:29.620Z,0.00
2019-03-06T03:14:29.613Z,0.00
2019-03-06T03:15:29.604Z,0.00
2019-03-06T03:16:29.594Z,0.00
2019-03-06T03:17:29.634Z,0.00
2019-03-06T03:18:29.575Z,0.00
2019-03-06T03:19:29.557Z,0.00
2019-03-06T03:20:29.548Z,0.00
2019-03-06T03:21:29.558Z,0.00
2019-03-06T03:22:29.528Z,0.00
2019-03-06T03:23:29.569Z,0.00
2019-03-06T03:24:29.504Z,0.00
2019-03-06T03:25:29.490Z,0.00
2019-03-06T03:26:29.481Z,0.00
2019-03-06T03:27:29.486Z,0.00
2019-03-06T03:28:29.463Z,0.00
2019-03-06T03:29:29.481Z,0.00
2019-03-06T03:30:29.449Z,0.00
2019-03-06T03:31:29.461Z,0.00
2019-03-06T03:32:29.421Z,0.00
2019-03-06T03:33:29.421Z,0.00
2019-03-06T03:34:29.413Z,0.00
2019-03-06T03:35:29.384Z,0.00
2019-03-06T03:36:29.378Z,0.00
2019-03-06T03:37:29.674Z,0.00
2019-03-06T03:38:29.373Z,0.00
2019-03-06T03:39:29.380Z,0.00
2019-03-06T03:40:29.334Z,0.00
2019-03-06T03:41:29.318Z,0.00
2019-03-06T03:42:29.312Z,0.00
2019-03-06T03:43:29.310Z,0.00
2019-03-06T03:44:29.320Z,0.00
2019-03-06T03:45:29.312Z,0.00
2019-03-06T03:46:29.266Z,0.00
2019-03-06T03:47:29.271Z,0.00
2019-03-06T03:48:29.246Z,0.00
2019-03-06T03:49:29.232Z,0.00
2019-03-06T03:50:29.262Z,0.00
2019-03-06T03:51:29.217Z,0.00
2019-03-06T03:52:29.209Z,0.00
2019-03-06T03:53:29.191Z,0.00
2019-03-06T03:54:29.189Z,0.00
2019-03-06T03:55:29.176Z,0.00
2019-03-06T03:56:29.195Z,0.00
2019-03-06T03:57:29.170Z,0.00
2019-03-06T03:58:29.136Z,0.00
2019-03-06T03:59:29.126Z,0.00
2019-03-06T04:00:29.129Z,0.00
2019-03-06T04:01:29.146Z,0.00
2019-03-06T04:02:29.098Z,0.00
2019-03-06T04:03:29.097Z,0.00
2019-03-06T04:04:29.075Z,0.00
2019-03-06T04:05:29.064Z,0.00
2019-03-06T04:06:29.093Z,0.00
2019-03-06T04:07:29.078Z,0.00
2019-03-06T04:08:29.066Z,0.00
2019-03-06T04:09:29.028Z,0.00
2019-03-06T04:10:29.043Z,0.00
2019-03-06T04:11:29.004Z,0.00
2019-03-06T04:12:28.995Z,0.00
2019-03-06T04:13:29.016Z,0.00
2019-03-06T04:14:29.015Z,0.00
2019-03-06T04:15:28.973Z,0.00
2019-03-06T04:16:29.034Z,0.00
2019-03-06T04:17:28.935Z,0.00
2019-03-06T04:18:28.924Z,0.00
2019-03-06T04:19:28.946Z,0.00
2019-03-06T04:20:28.919Z,0.00
2019-03-06T04:21:28.899Z,0.00
2019-03-06T04:22:28.885Z,0.00
2019-03-06T04:23:28.869Z,0.00
2019-03-06T04:24:28.862Z,0.00
2019-03-06T04:25:28.885Z,0.00
2019-03-06T04:26:28.886Z,0.00
2019-03-06T04:27:28.827Z,0.00
2019-03-06T04:28:28.826Z,0.00
2019-03-06T04:29:28.805Z,0.00
2019-03-06T04:30:28.853Z,0.00
2019-03-06T04:31:28.819Z,0.00
2019-03-06T04:32:28.779Z,0.00
2019-03-06T04:33:28.794Z,0.00
2019-03-06T04:34:28.749Z,0.00
2019-03-06T04:35:28.746Z,0.00
2019-03-06T04:36:28.744Z,0.00
2019-03-06T04:37:28.757Z,0.00
2019-03-06T04:38:28.806Z,0.00
2019-03-06T04:39:28.715Z,0.00
2019-03-06T04:40:28.690Z,0.00
2019-03-06T04:41:28.677Z,0.00
2019-03-06T04:42:28.667Z,0.00
2019-03-06T04:43:28.686Z,0.00
2019-03-06T04:44:28.730Z,0.00
2019-03-06T04:45:28.635Z,0.00
2019-03-06T04:46:28.624Z,0.00
2019-03-06T04:47:28.650Z,0.00
2019-03-06T04:48:28.596Z,0.00
2019-03-06T04:49:28.592Z,0.00
2019-03-06T04:50:28.579Z,0.00
2019-03-06T04:51:28.567Z,0.00
2019-03-06T04:52:28.556Z,0.00
2019-03-06T04:53:28.589Z,0.00
2019-03-06T04:54:28.535Z,0.00
2019-03-06T04:55:28.531Z,0.00
2019-03-06T04:56:28.551Z,0.00
2019-03-06T04:57:28.505Z,0.00
2019-03-06T04:58:28.538Z,0.00
2019-03-06T04:59:28.482Z,0.00
2019-03-06T05:00:28.467Z,0.00
2019-03-06T05:01:28.466Z,0.00
2019-03-06T05:02:28.477Z,0.00
2019-03-06T05:03:28.437Z,0.00
2019-03-06T05:04:28.466Z,0.00
2019-03-06T05:05:28.419Z,0.00
2019-03-06T05:06:28.429Z,0.00
2019-03-06T05:07:28.424Z,0.00
2019-03-06T05:08:28.384Z,0.00
2019-03-06T05:09:28.379Z,0.00
2019-03-06T05:10:28.398Z,0.00
2019-03-06T05:11:28.388Z,0.00
2019-03-06T05:12:28.350Z,0.00
2019-03-06T05:13:28.332Z,0.00
2019-03-06T05:14:28.319Z,0.00
2019-03-06T05:15:28.313Z,0.00
2019-03-06T05:16:28.366Z,0.00
2019-03-06T05:17:28.298Z,0.00
2019-03-06T05:18:28.288Z,0.00
2019-03-06T05:19:28.291Z,0.00
2019-03-06T05:20:28.254Z,0.00
2019-03-06T05:21:28.282Z,0.00
2019-03-06T05:22:28.238Z,0.00
2019-03-06T05:23:28.225Z,0.00
2019-03-06T05:24:28.215Z,0.00
2019-03-06T05:25:28.198Z,0.00
2019-03-06T05:26:28.188Z,0.00
2019-03-06T05:27:28.233Z,0.00
2019-03-06T05:28:28.172Z,0.00
2019-03-06T05:29:28.156Z,0.00
2019-03-06T05:30:28.150Z,0.00
2019-03-06T05:31:28.135Z,0.00
2019-03-06T05:32:28.184Z,5.62
2019-03-06T05:33:28.804Z,5.62
2019-03-06T05:34:28.158Z,5.62
2019-03-06T05:35:28.093Z,5.62
2019-03-06T05:36:28.083Z,5.62
2019-03-06T05:37:28.068Z,5.62
2019-03-06T05:38:28.060Z,5.62
2019-03-06T05:39:28.059Z,5.62
2019-03-06T05:40:28.073Z,5.62
2019-03-06T05:41:28.028Z,11.25
2019-03-06T05:42:28.039Z,11.25
2019-03-06T05:43:28.016Z,11.25
2019-03-06T05:44:27.993Z,11.25
2019-03-06T05:45:28.000Z,11.25
2019-03-06T05:46:28.010Z,16.88
2019-03-06T05:47:28.004Z,16.88
2019-03-06T05:48:27.959Z,16.88
2019-03-06T05:49:27.939Z,22.50
2019-03-06T05:50:27.931Z,22.50
2019-03-06T05:51:27.916Z,22.50
2019-03-06T05:52:27.976Z,22.50
2019-03-06T05:53:27.906Z,28.12
2019-03-06T05:54:27.884Z,28.12
2019-03-06T05:55:27.882Z,33.75
2019-03-06T05:56:27.863Z,33.75
2019-03-06T05:57:27.857Z,39.38
2019-03-06T05:58:28.053Z,39.38
2019-03-06T05:59:27.831Z,45.00
2019-03-06T06:00:27.819Z,45.00
2019-03-06T06:01:27.808Z,50.62
2019-03-06T06:02:28.017Z,50.62
2019-03-06T06:03:27.831Z,56.25
2019-03-06T06:04:27.789Z,56.25
2019-03-06T06:05:27.790Z,61.88
2019-03-06T06:06:27.753Z,67.50
2019-03-06T06:07:27.745Z,67.50
2019-03-06T06:08:27.773Z,73.12
2019-03-06T06:09:27.761Z,73.12
2019-03-06T06:10:27.722Z,78.75
2019-03-06T06:11:27.700Z,84.38
2019-03-06T06:12:27.695Z,90.00
2019-03-06T06:13:27.728Z,90.00
2019-03-06T06:14:27.673Z,95.62
2019-03-06T06:15:27.663Z,95.62
2019-03-06T06:16:27.645Z,95.62
2019-03-06T06:17:27.634Z,101.25
2019-03-06T06:18:27.632Z,101.25
2019-03-06T06:19:27.654Z,101.25
2019-03-06T06:20:27.610Z,101.25
2019-03-06T06:21:27.600Z,101.25
2019-03-06T06:22:27.588Z,101.25
2019-03-06T06:23:27.568Z,101.25
2019-03-06T06:24:27.601Z,101.25
2019-03-06T06:25:27.556Z,106.88
2019-03-06T06:26:27.540Z,106.88
2019-03-06T06:27:27.531Z,106.88
2019-03-06T06:28:27.658Z,106.88
2019-03-06T06:29:27.596Z,106.88
2019-03-06T06:30:27.493Z,101.25
2019-03-06T06:31:27.482Z,101.25
2019-03-06T06:32:27.473Z,106.88
2019-03-06T06:33:27.467Z,112.50
2019-03-06T06:34:27.485Z,112.50
2019-03-06T06:35:27.443Z,118.12
2019-03-06T06:36:27.431Z,118.12
2019-03-06T06:37:27.422Z,118.12
2019-03-06T06:38:27.411Z,118.12
2019-03-06T06:39:27.461Z,123.75
2019-03-06T06:40:27.428Z,123.75
2019-03-06T06:41:27.460Z,135.00
2019-03-06T06:42:27.391Z,146.25
2019-03-06T06:43:27.355Z,157.50
2019-03-06T06:44:27.348Z,168.75
2019-03-06T06:45:27.335Z,174.38
2019-03-06T06:46:27.325Z,185.62
2019-03-06T06:47:27.350Z,191.25
2019-03-06T06:48:27.301Z,202.50
2019-03-06T06:49:27.300Z,202.50
2019-03-06T06:50:27.281Z,213.75
2019-03-06T06:51:27.295Z,219.38
2019-03-06T06:52:27.293Z,219.38
2019-03-06T06:53:27.248Z,219.38
2019-03-06T06:54:27.237Z,219.38
2019-03-06T06:55:27.235Z,230.62
2019-03-06T06:56:28.156Z,247.50
2019-03-06T06:57:27.203Z,253.12
2019-03-06T06:58:31.333Z,258.75
2019-03-06T06:59:27.180Z,270.00
2019-03-06T07:00:27.169Z,286.88
2019-03-06T07:01:27.171Z,292.50
2019-03-06T07:02:27.145Z,298.12
2019-03-06T07:03:27.136Z,303.75
2019-03-06T07:04:27.200Z,309.38
2019-03-06T07:05:27.124Z,326.25
2019-03-06T07:06:27.104Z,365.62
2019-03-06T07:07:27.100Z,444.38
2019-03-06T07:08:27.087Z,511.88
2019-03-06T07:09:27.132Z,540.00
2019-03-06T07:10:27.061Z,556.88
2019-03-06T07:11:27.050Z,601.88
2019-03-06T07:12:27.039Z,641.25
2019-03-06T07:13:27.025Z,669.38
2019-03-06T07:14:27.037Z,714.38
2019-03-06T07:15:27.184Z,832.50
2019-03-06T07:16:26.991Z,911.25
2019-03-06T07:17:27.028Z,950.62
2019-03-06T07:18:26.970Z,911.25
2019-03-06T07:19:26.962Z,838.12
2019-03-06T07:20:26.948Z,821.25
2019-03-06T07:21:26.971Z,815.62
2019-03-06T07:22:26.935Z,815.62
2019-03-06T07:23:26.940Z,843.75
2019-03-06T07:24:27.677Z,832.50
2019-03-06T07:25:26.921Z,860.62
2019-03-06T07:26:26.895Z,871.88
2019-03-06T07:27:27.240Z,911.25
2019-03-06T07:28:26.860Z,933.75
2019-03-06T07:29:26.850Z,995.62
2019-03-06T07:30:27.015Z,995.62
2019-03-06T07:31:27.660Z,1006.88
2019-03-06T07:32:26.824Z,995.62
2019-03-06T07:33:26.852Z,1018.12
2019-03-06T07:34:26.802Z,1018.12
2019-03-06T07:35:26.864Z,1051.88
2019-03-06T07:36:26.770Z,1051.88
2019-03-06T07:37:28.869Z,1091.25
2019-03-06T07:38:26.750Z,1085.62
2019-03-06T07:39:26.768Z,1136.25
2019-03-06T07:40:26.737Z,1158.75
2019-03-06T07:41:26.729Z,1198.12
2019-03-06T07:42:26.727Z,1209.38
2019-03-06T07:43:26.784Z,1215.00
2019-03-06T07:44:30.239Z,1153.12
2019-03-06T07:45:26.716Z,1164.38
2019-03-06T07:46:26.665Z,1170.00
2019-03-06T07:47:26.735Z,1153.12
2019-03-06T07:48:26.711Z,1113.75
2019-03-06T07:49:26.730Z,1102.50
2019-03-06T07:50:26.641Z,1130.62
2019-03-06T07:51:26.618Z,1108.12
2019-03-06T07:52:26.656Z,1125.00
2019-03-06T07:53:26.589Z,1119.38
2019-03-06T07:54:26.586Z,1085.62
2019-03-06T07:55:26.663Z,1175.62
2019-03-06T07:56:26.589Z,1192.50
2019-03-06T07:57:26.598Z,1276.88
2019-03-06T07:58:26.539Z,1237.50
2019-03-06T07:59:26.625Z,1051.88
2019-03-06T08:00:26.606Z,945.00
2019-03-06T08:01:26.520Z,990.00
2019-03-06T08:02:26.515Z,1051.88
2019-03-06T08:03:26.529Z,1147.50
2019-03-06T08:04:26.543Z,1186.88
2019-03-06T08:05:26.609Z,1271.25
2019-03-06T08:06:26.451Z,1175.62
2019-03-06T08:07:26.446Z,1299.38
2019-03-06T08:08:26.454Z,1383.75
2019-03-06T08:09:26.406Z,1417.50
2019-03-06T08:10:26.456Z,1395.00
2019-03-06T08:11:26.395Z,1411.88
2019-03-06T08:12:26.388Z,1181.25
2019-03-06T08:13:26.375Z,1215.00
2019-03-06T08:14:26.429Z,1299.38
2019-03-06T08:15:26.344Z,1485.00
2019-03-06T08:16:26.347Z,1338.75
2019-03-06T08:17:26.327Z,1507.50
2019-03-06T08:18:26.328Z,1496.25
2019-03-06T08:19:26.317Z,1501.88
2019-03-06T08:20:26.336Z,1490.62
2019-03-06T08:21:26.277Z,1524.38
2019-03-06T08:22:26.266Z,1513.12
2019-03-06T08:23:26.263Z,1518.75
2019-03-06T08:24:26.249Z,1513.12
2019-03-06T08:25:26.293Z,1530.00
2019-03-06T08:26:26.297Z,1546.88
2019-03-06T08:27:26.342Z,1575.00
2019-03-06T08:28:47.207Z,1591.88
2019-03-06T08:29:26.196Z,1653.75
2019-03-06T08:30:26.206Z,1653.75
2019-03-06T08:31:26.241Z,1625.62
2019-03-06T08:32:26.157Z,1552.50
2019-03-06T08:33:26.157Z,1659.38
2019-03-06T08:34:26.491Z,1743.75
2019-03-06T08:35:26.144Z,1721.25
2019-03-06T08:36:26.143Z,1642.50
2019-03-06T08:37:26.171Z,1524.38
2019-03-06T08:38:26.095Z,1620.00
2019-03-06T08:39:26.094Z,1788.75
2019-03-06T08:40:26.074Z,1760.62
2019-03-06T08:41:26.094Z,1777.50
2019-03-06T08:42:26.063Z,1822.50
2019-03-06T08:43:26.027Z,1861.88
2019-03-06T08:44:26.028Z,1873.12
2019-03-06T08:45:26.019Z,1918.12
2019-03-06T08:46:26.008Z,2053.12
2019-03-06T08:47:26.032Z,2143.12
2019-03-06T08:48:25.974Z,2137.50
2019-03-06T08:49:25.988Z,2126.25
2019-03-06T08:50:25.963Z,1721.25
2019-03-06T08:51:25.968Z,1535.62
2019-03-06T08:52:25.984Z,2176.88
2019-03-06T08:53:25.929Z,2306.25
2019-03-06T08:54:25.923Z,2345.62
2019-03-06T08:55:26.015Z,2385.00
2019-03-06T08:56:25.888Z,2458.12
2019-03-06T08:57:25.885Z,2053.12
2019-03-06T08:58:25.931Z,2463.75
2019-03-06T08:59:25.891Z,2340.00
2019-03-06T09:00:25.845Z,1811.25
2019-03-06T09:01:25.836Z,1614.38
2019-03-06T09:02:25.825Z,843.75
2019-03-06T09:03:25.873Z,765.00
2019-03-06T09:04:25.805Z,928.12
2019-03-06T09:05:25.786Z,883.12
2019-03-06T09:06:25.783Z,1068.75
2019-03-06T09:07:25.763Z,1226.25
2019-03-06T09:08:25.771Z,1158.75
2019-03-06T09:09:25.793Z,1867.50
2019-03-06T09:10:25.735Z,1996.88
2019-03-06T09:11:25.784Z,1181.25
2019-03-06T09:12:25.732Z,1485.00
2019-03-06T09:13:25.697Z,1164.38
2019-03-06T09:14:25.705Z,1265.62
2019-03-06T09:15:25.688Z,1473.75
2019-03-06T09:16:25.695Z,2047.50
2019-03-06T09:17:26.762Z,1929.38
2019-03-06T09:18:25.642Z,1839.38
2019-03-06T09:19:25.636Z,1766.25
2019-03-06T09:20:34.968Z,1743.75
2019-03-06T09:21:26.619Z,1828.12
2019-03-06T09:22:25.599Z,1867.50
2019-03-06T09:23:25.656Z,1912.50
2019-03-06T09:24:25.580Z,1923.75
2019-03-06T09:25:25.633Z,1884.38
2019-03-06T09:26:25.564Z,1890.00
2019-03-06T09:27:25.597Z,1850.62
2019-03-06T09:28:25.613Z,1811.25
2019-03-06T09:29:25.522Z,1816.88
2019-03-06T09:30:25.530Z,1715.62
2019-03-06T09:31:25.511Z,1698.75
2019-03-06T09:32:25.506Z,1771.88
2019-03-06T09:33:25.511Z,1698.75
2019-03-06T09:34:25.522Z,1648.12
2019-03-06T09:35:25.460Z,1563.75
2019-03-06T09:36:25.449Z,1479.38
2019-03-06T09:37:25.457Z,1456.88
2019-03-06T09:38:25.455Z,1468.12
2019-03-06T09:39:25.480Z,1451.25
2019-03-06T09:40:25.395Z,1451.25
2019-03-06T09:41:25.386Z,1586.25
2019-03-06T09:42:25.375Z,1811.25
2019-03-06T09:43:25.368Z,1935.00
2019-03-06T09:44:25.360Z,1968.75
2019-03-06T09:45:25.423Z,1996.88
2019-03-06T09:46:25.346Z,1912.50
2019-03-06T09:47:25.351Z,1890.00
2019-03-06T09:48:25.342Z,1946.25
2019-03-06T09:49:25.364Z,1912.50
2019-03-06T09:50:25.358Z,1845.00
2019-03-06T09:51:25.298Z,1850.62
2019-03-06T09:52:25.271Z,1923.75
2019-03-06T09:53:25.271Z,1980.00
2019-03-06T09:54:25.257Z,1856.25
2019-03-06T09:55:25.241Z,1771.88
2019-03-06T09:56:25.296Z,1698.75
2019-03-06T09:57:25.231Z,1704.38
2019-03-06T09:58:25.224Z,1665.00
2019-03-06T09:59:25.194Z,1726.88
2019-03-06T10:00:25.185Z,1800.00
2019-03-06T10:01:25.185Z,1794.38
2019-03-06T10:02:25.207Z,1771.88
2019-03-06T10:03:25.146Z,1636.88
2019-03-06T10:04:25.141Z,1648.12
2019-03-06T10:05:25.136Z,1620.00
2019-03-06T10:06:25.118Z,1721.25
2019-03-06T10:07:25.144Z,1811.25
2019-03-06T10:08:25.470Z,1816.88
2019-03-06T10:09:25.088Z,1771.88
2019-03-06T10:10:25.077Z,1890.00
2019-03-06T10:11:25.153Z,2019.38
2019-03-06T10:12:25.107Z,2030.62
2019-03-06T10:13:25.059Z,2013.75
2019-03-06T10:14:25.042Z,2137.50
2019-03-06T10:15:25.021Z,2295.00
2019-03-06T10:16:25.052Z,2334.38
2019-03-06T10:17:25.002Z,2306.25
2019-03-06T10:18:26.821Z,2306.25
2019-03-06T10:19:24.970Z,2345.62
2019-03-06T10:20:25.550Z,2435.62
2019-03-06T10:21:25.745Z,2469.38
2019-03-06T10:22:24.933Z,2486.25
2019-03-06T10:23:24.937Z,2655.00
2019-03-06T10:24:24.965Z,2643.75
2019-03-06T10:25:30.067Z,2576.25
2019-03-06T10:26:25.892Z,2705.62
2019-03-06T10:27:24.875Z,2739.38
2019-03-06T10:28:28.018Z,2767.50
2019-03-06T10:29:24.917Z,2638.12
2019-03-06T10:30:24.853Z,2385.00
2019-03-06T10:31:24.861Z,2508.75
2019-03-06T10:32:24.854Z,2424.38
2019-03-06T10:33:24.820Z,2424.38
2019-03-06T10:34:24.879Z,2362.50
2019-03-06T10:35:24.818Z,2373.75
2019-03-06T10:36:24.786Z,2143.12
2019-03-06T10:37:24.789Z,2300.62
2019-03-06T10:38:24.757Z,2475.00
2019-03-06T10:39:24.750Z,2559.38
2019-03-06T10:40:24.822Z,2368.12
2019-03-06T10:41:24.745Z,2430.00
2019-03-06T10:42:24.734Z,2446.88
2019-03-06T10:43:24.719Z,2407.50
2019-03-06T10:44:29.492Z,2514.38
2019-03-06T10:45:25.734Z,2593.12
2019-03-06T10:46:24.670Z,2576.25
2019-03-06T10:47:24.678Z,2514.38
2019-03-06T10:48:24.658Z,2452.50
2019-03-06T10:49:24.637Z,2491.88
2019-03-06T10:50:26.925Z,2430.00
2019-03-06T10:51:25.747Z,2283.75
2019-03-06T10:52:24.650Z,2233.12
2019-03-06T10:53:24.605Z,2266.88
2019-03-06T10:54:24.596Z,2413.12
2019-03-06T10:55:24.573Z,2356.88
2019-03-06T10:56:24.647Z,2430.00
2019-03-06T10:57:24.564Z,2463.75
2019-03-06T10:58:24.546Z,2418.75
2019-03-06T10:59:27.233Z,2486.25
2019-03-06T11:00:24.537Z,2424.38
2019-03-06T11:01:24.543Z,2385.00
2019-03-06T11:02:24.568Z,2300.62
2019-03-06T11:03:24.510Z,2171.25
2019-03-06T11:04:24.527Z,2131.88
2019-03-06T11:05:24.468Z,2154.38
2019-03-06T11:06:24.473Z,2227.50
2019-03-06T11:07:24.543Z,2070.00
2019-03-06T11:08:25.066Z,2143.12
2019-03-06T11:09:24.422Z,2283.75
2019-03-06T11:10:25.226Z,1935.00
2019-03-06T11:11:24.402Z,1665.00
2019-03-06T11:12:24.445Z,1631.25
2019-03-06T11:13:24.397Z,1721.25
2019-03-06T11:14:24.374Z,1873.12
2019-03-06T11:15:24.358Z,1963.12
2019-03-06T11:16:24.343Z,2008.12
2019-03-06T11:17:24.332Z,1890.00
2019-03-06T11:18:24.376Z,1816.88
2019-03-06T11:19:24.330Z,1681.88
2019-03-06T11:20:24.311Z,1608.75
2019-03-06T11:21:24.311Z,1563.75
2019-03-06T11:22:24.302Z,1479.38
2019-03-06T11:23:25.000Z,1524.38
2019-03-06T11:24:24.330Z,1636.88
2019-03-06T11:25:24.236Z,1676.25
2019-03-06T11:26:24.241Z,1704.38
2019-03-06T11:27:24.224Z,1597.50
2019-03-06T11:28:24.221Z,1659.38
2019-03-06T11:29:24.207Z,1631.25
2019-03-06T11:30:24.309Z,1546.88
2019-03-06T11:31:24.178Z,1546.88
2019-03-06T11:32:24.175Z,1636.88
2019-03-06T11:33:24.182Z,1608.75
2019-03-06T11:34:24.142Z,1575.00
2019-03-06T11:35:24.147Z,1485.00
2019-03-06T11:36:24.197Z,1473.75
2019-03-06T11:37:24.106Z,1451.25
2019-03-06T11:38:24.119Z,1423.12
2019-03-06T11:39:24.087Z,1451.25
2019-03-06T11:40:24.069Z,1563.75
2019-03-06T11:41:24.143Z,1423.12
2019-03-06T11:42:24.063Z,1344.38
2019-03-06T11:43:24.059Z,1383.75
2019-03-06T11:44:24.046Z,1327.50
2019-03-06T11:45:24.046Z,1530.00
2019-03-06T11:46:24.051Z,1636.88
2019-03-06T11:47:24.079Z,1665.00
2019-03-06T11:48:23.986Z,1710.00
2019-03-06T11:49:23.981Z,1575.00
2019-03-06T11:50:24.025Z,1648.12
2019-03-06T11:51:23.953Z,1698.75
2019-03-06T11:52:24.011Z,1670.62
2019-03-06T11:53:23.932Z,1653.75
2019-03-06T11:54:23.923Z,1749.38
2019-03-06T11:55:23.909Z,1721.25
2019-03-06T11:56:23.971Z,1659.38
2019-03-06T11:57:23.901Z,1603.12
2019-03-06T11:58:23.938Z,1591.88
2019-03-06T11:59:23.883Z,1558.12
2019-03-06T12:00:23.863Z,1445.62
2019-03-06T12:01:23.868Z,1400.62
2019-03-06T12:02:23.825Z,1293.75
2019-03-06T12:03:23.816Z,1282.50
2019-03-06T12:04:23.864Z,1220.62
2019-03-06T12:05:23.799Z,1237.50
2019-03-06T12:06:23.894Z,1310.62
2019-03-06T12:07:23.784Z,1406.25
2019-03-06T12:08:23.766Z,1552.50
2019-03-06T12:09:23.875Z,1816.88
2019-03-06T12:10:23.757Z,1996.88
2019-03-06T12:11:23.729Z,2092.50
2019-03-06T12:12:23.743Z,2193.75
2019-03-06T12:13:23.734Z,2188.12
2019-03-06T12:14:23.718Z,2081.25
2019-03-06T12:15:23.749Z,2238.75
2019-03-06T12:16:23.682Z,2238.75
2019-03-06T12:17:23.676Z,2283.75
2019-03-06T12:18:23.657Z,2300.62
2019-03-06T12:19:23.652Z,2261.25
2019-03-06T12:20:23.646Z,2261.25
2019-03-06T12:21:23.678Z,2300.62
2019-03-06T12:22:23.612Z,2216.25
2019-03-06T12:23:23.607Z,2210.62
2019-03-06T12:24:23.587Z,2086.88
2019-03-06T12:25:23.639Z,2233.12
2019-03-06T12:26:23.578Z,2401.88
2019-03-06T12:27:23.612Z,2390.62
2019-03-06T12:28:23.558Z,2295.00
2019-03-06T12:29:23.559Z,2233.12
2019-03-06T12:30:23.517Z,2160.00
2019-03-06T12:31:23.584Z,2064.38
2019-03-06T12:32:23.522Z,2081.25
2019-03-06T12:33:23.494Z,1951.88
2019-03-06T12:34:23.483Z,1816.88
2019-03-06T12:35:23.517Z,1580.62
2019-03-06T12:36:23.838Z,1231.88
2019-03-06T12:37:23.509Z,1597.50
2019-03-06T12:38:23.448Z,1642.50
2019-03-06T12:39:23.424Z,1406.25
2019-03-06T12:40:23.405Z,1541.25
2019-03-06T12:41:23.432Z,1648.12